Aguas Calientes, Peru

12:23 PM -05 on August 20, 2017 (GMT -0500)
David Abenzur Rengifo | | Change Station

Elev 512 ft 8.38 °S, 74.57 °W | Updated 23 minutes ago

Partly Cloudy
Partly Cloudy
91 °F
Feels Like 100 °F
N
7
Wind Variable Wind from NE

Today
High -- | Low -- °F
--% Chance of Precip.
Yesterday
High -- | Low -- °F
Precip. -- in
Pressure 29.92 in
Visibility 6.2 miles
Clouds Mostly Cloudy 2500 ft
Heat Index 100 °F
Dew Point 73 °F
Humidity 55%
Rainfall 0.00 in
Snow Depth Not available.
6:06 AM 5:57 PM
Waning Crescent, 1% visible
METAR SPCL 201700Z 05006KT 350V100 9999 BKN025 33/23 Q1013 RMK BIRD HAZARD RWY 02/20 PP000
Pressure 29.92 in
Visibility 6.2 miles
Clouds Mostly Cloudy 2500 ft
Heat Index 100 °F
Dew Point 73 °F
Humidity 55%
Rainfall 0.00 in
Snow Depth Not available.
6:06 AM 5:57 PM
Waning Crescent, 1% visible
METAR SPCL 201700Z 05006KT 350V100 9999 BKN025 33/23 Q1013 RMK BIRD HAZARD RWY 02/20 PP000

Get Severe Weather Alerts

Thanks for signing up!

Be on the lookout for a verification email in your inbox.

You'll start receiving the daily forecast at 6 AM.

×

10-Day Weather Forecast

No radar image for this location.
×

Almanac

Astronomy

Aug. 20, 2017 Rise Set
Actual Time
Civil Twilight
Nautical Twilight
Astronomical Twilight
Moon
Length of Visible Light
Length of Day
Tomorrow will be .
, % of the Moon is Illuminated

Today's Extremes

Country Highs Country Lows

Community

WunderPhotos

Category 6

Welcome to Category 6. This is the collective home for Weather Underground's featured writeups by Dr. Jeff Masters (right), Bob Henson (left), Chris Burt, and other regular contributors.

Nearby

Air Quality

  Air Quality AQ Index Pollutant
Not available.

Snow Depth

Station Depth Elevation

Earthquake Activity

City Distance Mag. Time & Date
Minimum magnitude displayed is 2.5.

Coastal Water Temperatures

Place Temperature

Stations

Nearby Weather Stations

Station Location Temp. Windchill Dew Point Humidity Wind Precip. Elev Updated Type